Paz Navigator — PBLM — position and weather

sailwx.info

Track history (hours):
 
Tides and Currents Weather Stations Pressure Air Temp Water Temp Dewpoint Dewpoint Depression Visibility Wind Speed Wind Dir Waves Ship Positions

Paz Navigator

Last reported at 2018-Jun-18 03:57 UTC. Time now 2018-Jun-18 13:21 UTC.
Position N 55°36' E 015°24'.

Length 118 m; draft 5.2 m.

Type: Ship. MMSI: 244790009.

Date/timePositionNaut miles runAvg speedWind from/ knotsBaromVisibWave heightAir tempDewpointWater temp
2018-Jun-18 03:57N 55°36' E 015°24'613.6
2018-Jun-18 03:30N 55°33' E 015°14'713.8
2018-Jun-18 03:00N 55°30' E 015°03'713.7
2018-Jun-18 02:30N 55°27' E 014°52'1013.4
2018-Jun-18 01:47N 55°23' E 014°37'413.5
2018-Jun-18 01:30N 55°20' E 014°33'713.5
2018-Jun-18 01:00N 55°14' E 014°26'713.2
2018-Jun-18 00:30N 55°09' E 014°18'713.3
2018-Jun-17 23:59N 55°04' E 014°11'5213.1
2018-Jun-17 20:00N 54°45' E 012°46'613.0
2018-Jun-17 19:30N 54°42' E 012°37'713.2
2018-Jun-17 18:59N 54°38' E 012°27'613.3
2018-Jun-17 18:30N 54°34' E 012°19'1411.1
2018-Jun-17 17:17N 54°25' E 012°01'1412.5
2018-Jun-17 16:11N 54°27' E 011°38'314.0
2018-Jun-17 16:00N 54°28' E 011°34'713.3
2018-Jun-17 15:31N 54°31' E 011°24'613.0
2018-Jun-17 15:01N 54°34' E 011°14'612.8
2018-Jun-17 14:31N 54°35' E 011°03'713.3
2018-Jun-17 14:01N 54°34' E 010°52'713.3
2018-Jun-17 13:31N 54°34' E 010°40'813.4
2018-Jun-17 12:55N 54°31' E 010°27'48 6.7
2018-Jun-17 05:49N 54°05' E 009°19'3 8.6
2018-Jun-17 05:30N 54°02' E 009°18'4 8.1
2018-Jun-17 05:00N 53°58' E 009°16'2 4.1
2018-Jun-17 04:30N 53°57' E 009°14'0 0.4
2018-Jun-17 04:00N 53°56' E 009°13'3 6.8
2018-Jun-17 03:30N 53°54' E 009°09'1 1.3
2018-Jun-17 03:00N 53°53' E 009°09'2 4.2
2018-Jun-17 02:30N 53°53' E 009°05'0 0.7
2018-Jun-17 02:00N 53°53' E 009°06'3 6.1
2018-Jun-17 01:30N 53°51' E 009°01'510.0
2018-Jun-17 01:01N 53°50' E 008°53'5 9.8
2018-Jun-17 00:30N 53°51' E 008°45'611.3
2018-Jun-17 00:00N 53°56' E 008°39'611.3
2018-Jun-16 23:30N 53°58' E 008°31'612.1
2018-Jun-16 23:00N 53°59' E 008°21'612.6
2018-Jun-16 22:30N 53°59' E 008°10'9712.8
2018-Jun-16 14:54N 53°35' E 005°31'511.9
2018-Jun-16 14:31N 53°33' E 005°24'611.9
2018-Jun-16 14:01N 53°31' E 005°14'612.1
2018-Jun-16 13:30N 53°29' E 005°04'612.2
2018-Jun-16 13:00N 53°27' E 004°55'612.5
2018-Jun-16 12:30N 53°24' E 004°46'1612.2
2018-Jun-16 11:12N 53°11' E 004°31'312.5
2018-Jun-16 10:57N 53°08' E 004°29'612.5
2018-Jun-16 10:29N 53°03' E 004°24'612.4
2018-Jun-16 10:00N 52°58' E 004°19'612.5
2018-Jun-16 09:31N 52°52' E 004°15'612.5
2018-Jun-16 08:59N 52°47' E 004°09'712.9
2018-Jun-16 08:29N 52°42' E 004°02'713.2
2018-Jun-16 07:58N 52°37' E 003°54'613.5
2018-Jun-16 07:30N 52°32' E 003°47'713.6
2018-Jun-16 07:00N 52°28' E 003°38'713.9
2018-Jun-16 06:30N 52°23' E 003°30'714.1
2018-Jun-16 06:00N 52°18' E 003°22'714.4
2018-Jun-16 05:30N 52°13' E 003°14'814.6
2018-Jun-16 05:00N 52°08' E 003°05'814.8
2018-Jun-16 04:28N 52°02' E 002°57'715.1
2018-Jun-16 04:00N 51°57' E 002°49'814.8
2018-Jun-16 03:26N 51°51' E 002°39'614.0
2018-Jun-16 03:00N 51°51' E 002°30'713.9
2018-Jun-16 02:30N 51°48' E 002°20'714.8
2018-Jun-16 02:01N 51°43' E 002°11'714.6
2018-Jun-16 01:31N 51°39' E 002°02'714.4
2018-Jun-16 01:01N 51°35' E 001°52'713.6
2018-Jun-16 00:30N 51°32' E 001°42'612.7
2018-Jun-16 00:01N 51°29' E 001°33'4 8.6
2018-Jun-15 23:31N 51°26' E 001°28'611.1
2018-Jun-15 23:01N 51°28' E 001°20'611.3
2018-Jun-15 22:30N 51°29' E 001°11'611.1
2018-Jun-15 22:01N 51°29' E 001°02'611.6
2018-Jun-15 21:31N 51°29' E 000°52'611.9
2018-Jun-15 21:00N 51°30' E 000°43'613.0
2018-Jun-15 20:30N 51°30' E 000°32'612.5
2018-Jun-15 20:01N 51°27' E 000°24'2 4.1
2018-Jun-15 19:31N 51°27' E 000°21'0 0.7
2018-Jun-15 19:01N 51°28' E 000°21'0 0.0
2018-Jun-15 18:31N 51°28' E 000°21'0 0.0
2018-Jun-15 18:01N 51°28' E 000°21'0 0.0
2018-Jun-15 17:31N 51°28' E 000°21'0 0.0
2018-Jun-15 17:01N 51°28' E 000°21'0 0.0
2018-Jun-15 16:30N 51°28' E 000°21'0 0.0
2018-Jun-15 16:00N 51°28' E 000°21'0 0.0
2018-Jun-15 15:30N 51°28' E 000°21'0 0.0
2018-Jun-15 15:01N 51°28' E 000°21'0 0.1
2018-Jun-15 14:30N 51°27' E 000°21'0 0.0
2018-Jun-15 14:01N 51°27' E 000°21'0 0.0
2018-Jun-15 13:30N 51°27' E 000°21'0 0.0
2018-Jun-15 13:01N 51°27' E 000°21'0 0.0
2018-Jun-15 12:31N 51°27' E 000°21'0 0.0
2018-Jun-15 12:00N 51°27' E 000°21'0 0.0
2018-Jun-15 11:31N 51°27' E 000°21'0 0.0
2018-Jun-15 11:00N 51°27' E 000°21'0 0.0
2018-Jun-15 10:30N 51°27' E 000°21'0 0.0
2018-Jun-15 10:00N 51°27' E 000°21'0 0.0
2018-Jun-15 09:30N 51°27' E 000°21'0 0.0
2018-Jun-15 09:01N 51°27' E 000°21'0 0.0
2018-Jun-15 08:31N 51°27' E 000°21'0 0.0
2018-Jun-15 08:00N 51°27' E 000°21'0 0.0
2018-Jun-15 07:30N 51°27' E 000°21'0 0.0
2018-Jun-15 07:01N 51°27' E 000°21'0 0.0
2018-Jun-15 06:30N 51°27' E 000°21'0 0.0
2018-Jun-15 06:00N 51°27' E 000°21'0 0.0
2018-Jun-15 05:31N 51°27' E 000°21'0 0.0
2018-Jun-15 05:01N 51°27' E 000°21'0 0.0
2018-Jun-15 04:30N 51°27' E 000°21'0 0.0
2018-Jun-15 04:01N 51°27' E 000°21'0 0.0
2018-Jun-15 03:31N 51°27' E 000°21'0 0.0
2018-Jun-15 03:01N 51°27' E 000°21'0 0.0
2018-Jun-15 02:31N 51°27' E 000°21'0 0.0
2018-Jun-15 02:00N 51°27' E 000°21'0 0.0
2018-Jun-15 01:30N 51°27' E 000°21'0 0.0
2018-Jun-15 01:00N 51°27' E 000°21'0 0.0
2018-Jun-15 00:30N 51°27' E 000°21'0 0.0
2018-Jun-15 00:00N 51°27' E 000°21'0 0.0
2018-Jun-14 23:31N 51°27' E 000°21'0 0.0
2018-Jun-14 23:01N 51°27' E 000°21'0 0.0
2018-Jun-14 22:30N 51°27' E 000°21'0 0.0
2018-Jun-14 22:01N 51°27' E 000°21'0 0.0
2018-Jun-14 21:30N 51°27' E 000°21'0 0.0
2018-Jun-14 20:59N 51°27' E 000°21'0 0.0
2018-Jun-14 20:30N 51°27' E 000°21'0 0.0
2018-Jun-14 20:01N 51°27' E 000°21'0 0.0
2018-Jun-14 19:30N 51°27' E 000°21'0 0.0
2018-Jun-14 19:01N 51°27' E 000°21'0 0.0
2018-Jun-14 18:31N 51°27' E 000°21'0 0.0
2018-Jun-14 18:00N 51°27' E 000°21'0 0.0
2018-Jun-14 17:31N 51°27' E 000°21'0 0.0
2018-Jun-14 17:01N 51°27' E 000°21'0 0.0
2018-Jun-14 16:31N 51°27' E 000°21'0 0.0
2018-Jun-14 16:00N 51°27' E 000°21'0 0.0
2018-Jun-14 15:30N 51°27' E 000°21'0 0.0
2018-Jun-14 15:00N 51°27' E 000°21'0 0.0
2018-Jun-14 14:30N 51°27' E 000°21'0 0.0
2018-Jun-14 14:01N 51°27' E 000°21'0 0.0
2018-Jun-14 13:30N 51°27' E 000°21'0 0.0
2018-Jun-14 13:00N 51°27' E 000°21'0 0.0
2018-Jun-14 12:30N 51°27' E 000°21'0 0.0
2018-Jun-14 12:00N 51°27' E 000°21'0 0.0
2018-Jun-14 11:31N 51°27' E 000°21'0 0.0
2018-Jun-14 11:00N 51°27' E 000°21'0 0.0
2018-Jun-14 10:30N 51°27' E 000°21'0 0.0
2018-Jun-14 10:01N 51°27' E 000°21'0 0.0
2018-Jun-14 09:30N 51°27' E 000°21'0 0.0
2018-Jun-14 09:00N 51°27' E 000°21'0 0.0
2018-Jun-14 08:30N 51°27' E 000°21'0 0.0
2018-Jun-14 08:00N 51°27' E 000°21'0 0.0
2018-Jun-14 07:30N 51°27' E 000°21'0 0.0
2018-Jun-14 07:00N 51°27' E 000°21'0 0.2
2018-Jun-14 06:31N 51°28' E 000°21'0 0.0
2018-Jun-14 06:00N 51°28' E 000°21'0 0.0
2018-Jun-14 05:30N 51°28' E 000°21'0 0.0
2018-Jun-14 05:01N 51°28' E 000°21'0 0.0
2018-Jun-14 04:31N 51°28' E 000°21'0 0.4
2018-Jun-14 04:00N 51°27' E 000°21'0 0.7
2018-Jun-14 03:30N 51°27' E 000°20'0 0.3
2018-Jun-14 03:00N 51°27' E 000°20'0 0.9
2018-Jun-14 02:31N 51°27' E 000°21'3 6.5
2018-Jun-14 02:00N 51°27' E 000°26'4 8.5
2018-Jun-14 01:30N 51°30' E 000°31'4 7.9
2018-Jun-14 01:00N 51°30' E 000°37'5 9.5
2018-Jun-14 00:30N 51°30' E 000°45'510.1
2018-Jun-14 00:00N 51°30' E 000°53'612.4
2018-Jun-13 23:30N 51°30' E 001°03'713.3
2018-Jun-13 23:00N 51°29' E 001°14'713.9
2018-Jun-13 22:30N 51°28' E 001°25'5 9.0
2018-Jun-13 22:00N 51°26' E 001°31'2 3.9
2018-Jun-13 21:30N 51°27' E 001°32'2 3.6
2018-Jun-13 21:00N 51°29' E 001°34'2 3.9
2018-Jun-13 20:30N 51°29' E 001°37'2 5.0
2018-Jun-13 20:00N 51°28' E 001°41'3 6.3
2018-Jun-13 19:30N 51°26' E 001°44'3 6.4
2018-Jun-13 19:00N 51°23' E 001°43'3 6.6
2018-Jun-13 18:30N 51°19' E 001°42'3 6.9
2018-Jun-13 18:00N 51°16' E 001°40'4 7.3
2018-Jun-13 17:30N 51°13' E 001°38'4 7.3
2018-Jun-13 17:00N 51°09' E 001°38'4 8.1
2018-Jun-13 16:30N 51°05' E 001°39'510.9
2018-Jun-13 16:00N 51°01' E 001°34'612.3
2018-Jun-13 15:30N 50°55' E 001°29'612.6
2018-Jun-13 15:00N 50°49' E 001°25'612.9
2018-Jun-13 14:30N 50°44' E 001°21'612.6
2018-Jun-13 14:00N 50°39' E 001°14'611.6
2018-Jun-13 13:30N 50°36' E 001°07'610.8
2018-Jun-13 13:00N 50°32' E 000°60'610.6
2018-Jun-13 12:27N 50°30' E 000°51'1911.0
2018-Jun-13 10:43N 50°25' E 000°23'211.2
2018-Jun-13 10:30N 50°24' E 000°19'611.6
2018-Jun-13 10:00N 50°22' E 000°11'612.1
2018-Jun-13 09:30N 50°21' E 000°01'612.6
2018-Jun-13 09:00N 50°19' W 000°08'713.0
2018-Jun-13 08:30N 50°17' W 000°18'713.4
2018-Jun-13 08:00N 50°15' W 000°28'713.9
2018-Jun-13 07:30N 50°14' W 000°38'714.0
2018-Jun-13 07:00N 50°11' W 000°49'714.0
2018-Jun-13 06:30N 50°09' W 000°59'713.7
2018-Jun-13 06:00N 50°08' W 001°10'713.2
2018-Jun-13 05:30N 50°06' W 001°20'612.6
2018-Jun-13 05:01N 50°04' W 001°29'611.7
2018-Jun-13 04:30N 50°02' W 001°38'611.2
2018-Jun-13 04:00N 50°01' W 001°46'510.1
2018-Jun-13 03:30N 49°60' W 001°54'5 9.3
2018-Jun-13 03:00N 49°58' W 002°01'101 9.7
2018-Jun-12 16:33N 49°15' W 004°21'111.9
2018-Jun-12 16:29N 49°14' W 004°22'612.1
2018-Jun-12 15:58N 49°11' W 004°30'812.2
2018-Jun-12 15:17N 49°07' W 004°42'412.0
2018-Jun-12 14:55N 49°05' W 004°47'611.8
2018-Jun-12 14:26N 49°02' W 004°55'511.6
2018-Jun-12 14:00N 48°59' W 005°01'611.5
2018-Jun-12 13:30N 48°57' W 005°09'  
2018-Jun-10 00:04N 39°24' W 009°50'110.3
2018-Jun-10 00:00N 39°23' W 009°50'510.3
2018-Jun-09 23:29N 39°18' W 009°50'510.4
2018-Jun-09 23:00N 39°13' W 009°51'510.3
2018-Jun-09 22:30N 39°08' W 009°51'510.1
2018-Jun-09 22:00N 39°03' W 009°51'510.1
2018-Jun-09 21:30N 38°58' W 009°51'510.4
2018-Jun-09 21:00N 38°53' W 009°51'510.0
2018-Jun-09 20:30N 38°48' W 009°51'510.1
2018-Jun-09 20:00N 38°43' W 009°51'510.1
2018-Jun-09 19:30N 38°38' W 009°50'5 9.7
2018-Jun-09 19:00N 38°33' W 009°50'5 9.6
2018-Jun-09 18:30N 38°28' W 009°50'5 9.7
2018-Jun-09 18:00N 38°23' W 009°49'22 9.8
2018-Jun-09 15:44N 38°01' W 009°49'  
Track history (hours):
 
Tides and Currents Weather Stations Pressure Air Temp Water Temp Dewpoint Dewpoint Depression Visibility Wind Speed Wind Dir Waves Ship Positions

Paz Navigator

Last reported at 2018-Jun-18 03:57 UTC. Time now 2018-Jun-18 13:21 UTC.
Position N 55°36' E 015°24'.

Length 118 m; draft 5.2 m.

Type: Ship. MMSI: 244790009.

Date/timePositionNaut miles runAvg speedWind from/ knotsBaromVisibWave heightAir tempDewpointWater temp
2018-Jun-18 03:57N 55°36' E 015°24'613.6
2018-Jun-18 03:30N 55°33' E 015°14'713.8
2018-Jun-18 03:00N 55°30' E 015°03'713.7
2018-Jun-18 02:30N 55°27' E 014°52'1013.4
2018-Jun-18 01:47N 55°23' E 014°37'413.5
2018-Jun-18 01:30N 55°20' E 014°33'713.5
2018-Jun-18 01:00N 55°14' E 014°26'713.2
2018-Jun-18 00:30N 55°09' E 014°18'713.3
2018-Jun-17 23:59N 55°04' E 014°11'5213.1
2018-Jun-17 20:00N 54°45' E 012°46'613.0
2018-Jun-17 19:30N 54°42' E 012°37'713.2
2018-Jun-17 18:59N 54°38' E 012°27'613.3
2018-Jun-17 18:30N 54°34' E 012°19'1411.1
2018-Jun-17 17:17N 54°25' E 012°01'1412.5
2018-Jun-17 16:11N 54°27' E 011°38'314.0
2018-Jun-17 16:00N 54°28' E 011°34'713.3
2018-Jun-17 15:31N 54°31' E 011°24'613.0
2018-Jun-17 15:01N 54°34' E 011°14'612.8
2018-Jun-17 14:31N 54°35' E 011°03'713.3
2018-Jun-17 14:01N 54°34' E 010°52'713.3
2018-Jun-17 13:31N 54°34' E 010°40'813.4
2018-Jun-17 12:55N 54°31' E 010°27'48 6.7
2018-Jun-17 05:49N 54°05' E 009°19'3 8.6
2018-Jun-17 05:30N 54°02' E 009°18'4 8.1
2018-Jun-17 05:00N 53°58' E 009°16'2 4.1
2018-Jun-17 04:30N 53°57' E 009°14'0 0.4
2018-Jun-17 04:00N 53°56' E 009°13'3 6.8
2018-Jun-17 03:30N 53°54' E 009°09'1 1.3
2018-Jun-17 03:00N 53°53' E 009°09'2 4.2
2018-Jun-17 02:30N 53°53' E 009°05'0 0.7
2018-Jun-17 02:00N 53°53' E 009°06'3 6.1
2018-Jun-17 01:30N 53°51' E 009°01'510.0
2018-Jun-17 01:01N 53°50' E 008°53'5 9.8
2018-Jun-17 00:30N 53°51' E 008°45'611.3
2018-Jun-17 00:00N 53°56' E 008°39'611.3
2018-Jun-16 23:30N 53°58' E 008°31'612.1
2018-Jun-16 23:00N 53°59' E 008°21'612.6
2018-Jun-16 22:30N 53°59' E 008°10'9712.8
2018-Jun-16 14:54N 53°35' E 005°31'511.9
2018-Jun-16 14:31N 53°33' E 005°24'611.9
2018-Jun-16 14:01N 53°31' E 005°14'612.1
2018-Jun-16 13:30N 53°29' E 005°04'612.2
2018-Jun-16 13:00N 53°27' E 004°55'612.5
2018-Jun-16 12:30N 53°24' E 004°46'1612.2
2018-Jun-16 11:12N 53°11' E 004°31'312.5
2018-Jun-16 10:57N 53°08' E 004°29'612.5
2018-Jun-16 10:29N 53°03' E 004°24'612.4
2018-Jun-16 10:00N 52°58' E 004°19'612.5
2018-Jun-16 09:31N 52°52' E 004°15'612.5
2018-Jun-16 08:59N 52°47' E 004°09'712.9
2018-Jun-16 08:29N 52°42' E 004°02'713.2
2018-Jun-16 07:58N 52°37' E 003°54'613.5
2018-Jun-16 07:30N 52°32' E 003°47'713.6
2018-Jun-16 07:00N 52°28' E 003°38'713.9
2018-Jun-16 06:30N 52°23' E 003°30'714.1
2018-Jun-16 06:00N 52°18' E 003°22'714.4
2018-Jun-16 05:30N 52°13' E 003°14'814.6
2018-Jun-16 05:00N 52°08' E 003°05'814.8
2018-Jun-16 04:28N 52°02' E 002°57'715.1
2018-Jun-16 04:00N 51°57' E 002°49'814.8
2018-Jun-16 03:26N 51°51' E 002°39'614.0
2018-Jun-16 03:00N 51°51' E 002°30'713.9
2018-Jun-16 02:30N 51°48' E 002°20'714.8
2018-Jun-16 02:01N 51°43' E 002°11'714.6
2018-Jun-16 01:31N 51°39' E 002°02'714.4
2018-Jun-16 01:01N 51°35' E 001°52'713.6
2018-Jun-16 00:30N 51°32' E 001°42'612.7
2018-Jun-16 00:01N 51°29' E 001°33'4 8.6
2018-Jun-15 23:31N 51°26' E 001°28'611.1
2018-Jun-15 23:01N 51°28' E 001°20'611.3
2018-Jun-15 22:30N 51°29' E 001°11'611.1
2018-Jun-15 22:01N 51°29' E 001°02'611.6
2018-Jun-15 21:31N 51°29' E 000°52'611.9
2018-Jun-15 21:00N 51°30' E 000°43'613.0
2018-Jun-15 20:30N 51°30' E 000°32'612.5
2018-Jun-15 20:01N 51°27' E 000°24'2 4.1
2018-Jun-15 19:31N 51°27' E 000°21'0 0.7
2018-Jun-15 19:01N 51°28' E 000°21'0 0.0
2018-Jun-15 18:31N 51°28' E 000°21'0 0.0
2018-Jun-15 18:01N 51°28' E 000°21'0 0.0
2018-Jun-15 17:31N 51°28' E 000°21'0 0.0
2018-Jun-15 17:01N 51°28' E 000°21'0 0.0
2018-Jun-15 16:30N 51°28' E 000°21'0 0.0
2018-Jun-15 16:00N 51°28' E 000°21'0 0.0
2018-Jun-15 15:30N 51°28' E 000°21'0 0.0
2018-Jun-15 15:01N 51°28' E 000°21'0 0.1
2018-Jun-15 14:30N 51°27' E 000°21'0 0.0
2018-Jun-15 14:01N 51°27' E 000°21'0 0.0
2018-Jun-15 13:30N 51°27' E 000°21'0 0.0
2018-Jun-15 13:01N 51°27' E 000°21'0 0.0
2018-Jun-15 12:31N 51°27' E 000°21'0 0.0
2018-Jun-15 12:00N 51°27' E 000°21'0 0.0
2018-Jun-15 11:31N 51°27' E 000°21'0 0.0
2018-Jun-15 11:00N 51°27' E 000°21'0 0.0
2018-Jun-15 10:30N 51°27' E 000°21'0 0.0
2018-Jun-15 10:00N 51°27' E 000°21'0 0.0
2018-Jun-15 09:30N 51°27' E 000°21'0 0.0
2018-Jun-15 09:01N 51°27' E 000°21'0 0.0
2018-Jun-15 08:31N 51°27' E 000°21'0 0.0
2018-Jun-15 08:00N 51°27' E 000°21'0 0.0
2018-Jun-15 07:30N 51°27' E 000°21'0 0.0
2018-Jun-15 07:01N 51°27' E 000°21'0 0.0
2018-Jun-15 06:30N 51°27' E 000°21'0 0.0
2018-Jun-15 06:00N 51°27' E 000°21'0 0.0
2018-Jun-15 05:31N 51°27' E 000°21'0 0.0
2018-Jun-15 05:01N 51°27' E 000°21'0 0.0
2018-Jun-15 04:30N 51°27' E 000°21'0 0.0
2018-Jun-15 04:01N 51°27' E 000°21'0 0.0
2018-Jun-15 03:31N 51°27' E 000°21'0 0.0
2018-Jun-15 03:01N 51°27' E 000°21'0 0.0
2018-Jun-15 02:31N 51°27' E 000°21'0 0.0
2018-Jun-15 02:00N 51°27' E 000°21'0 0.0
2018-Jun-15 01:30N 51°27' E 000°21'0 0.0
2018-Jun-15 01:00N 51°27' E 000°21'0 0.0
2018-Jun-15 00:30N 51°27' E 000°21'0 0.0
2018-Jun-15 00:00N 51°27' E 000°21'0 0.0
2018-Jun-14 23:31N 51°27' E 000°21'0 0.0
2018-Jun-14 23:01N 51°27' E 000°21'0 0.0
2018-Jun-14 22:30N 51°27' E 000°21'0 0.0
2018-Jun-14 22:01N 51°27' E 000°21'0 0.0
2018-Jun-14 21:30N 51°27' E 000°21'0 0.0
2018-Jun-14 20:59N 51°27' E 000°21'0 0.0
2018-Jun-14 20:30N 51°27' E 000°21'0 0.0
2018-Jun-14 20:01N 51°27' E 000°21'0 0.0
2018-Jun-14 19:30N 51°27' E 000°21'0 0.0
2018-Jun-14 19:01N 51°27' E 000°21'0 0.0
2018-Jun-14 18:31N 51°27' E 000°21'0 0.0
2018-Jun-14 18:00N 51°27' E 000°21'0 0.0
2018-Jun-14 17:31N 51°27' E 000°21'0 0.0
2018-Jun-14 17:01N 51°27' E 000°21'0 0.0
2018-Jun-14 16:31N 51°27' E 000°21'0 0.0
2018-Jun-14 16:00N 51°27' E 000°21'0 0.0
2018-Jun-14 15:30N 51°27' E 000°21'0 0.0
2018-Jun-14 15:00N 51°27' E 000°21'0 0.0
2018-Jun-14 14:30N 51°27' E 000°21'0 0.0
2018-Jun-14 14:01N 51°27' E 000°21'0 0.0
2018-Jun-14 13:30N 51°27' E 000°21'0 0.0
2018-Jun-14 13:00N 51°27' E 000°21'0 0.0
2018-Jun-14 12:30N 51°27' E 000°21'0 0.0
2018-Jun-14 12:00N 51°27' E 000°21'0 0.0
2018-Jun-14 11:31N 51°27' E 000°21'0 0.0
2018-Jun-14 11:00N 51°27' E 000°21'0 0.0
2018-Jun-14 10:30N 51°27' E 000°21'0 0.0
2018-Jun-14 10:01N 51°27' E 000°21'0 0.0
2018-Jun-14 09:30N 51°27' E 000°21'0 0.0
2018-Jun-14 09:00N 51°27' E 000°21'0 0.0
2018-Jun-14 08:30N 51°27' E 000°21'0 0.0
2018-Jun-14 08:00N 51°27' E 000°21'0 0.0
2018-Jun-14 07:30N 51°27' E 000°21'0 0.0
2018-Jun-14 07:00N 51°27' E 000°21'0 0.2
2018-Jun-14 06:31N 51°28' E 000°21'0 0.0
2018-Jun-14 06:00N 51°28' E 000°21'0 0.0
2018-Jun-14 05:30N 51°28' E 000°21'0 0.0
2018-Jun-14 05:01N 51°28' E 000°21'0 0.0
2018-Jun-14 04:31N 51°28' E 000°21'0 0.4
2018-Jun-14 04:00N 51°27' E 000°21'0 0.7
2018-Jun-14 03:30N 51°27' E 000°20'0 0.3
2018-Jun-14 03:00N 51°27' E 000°20'0 0.9
2018-Jun-14 02:31N 51°27' E 000°21'3 6.5
2018-Jun-14 02:00N 51°27' E 000°26'4 8.5
2018-Jun-14 01:30N 51°30' E 000°31'4 7.9
2018-Jun-14 01:00N 51°30' E 000°37'5 9.5
2018-Jun-14 00:30N 51°30' E 000°45'510.1
2018-Jun-14 00:00N 51°30' E 000°53'612.4
2018-Jun-13 23:30N 51°30' E 001°03'713.3
2018-Jun-13 23:00N 51°29' E 001°14'713.9
2018-Jun-13 22:30N 51°28' E 001°25'5 9.0
2018-Jun-13 22:00N 51°26' E 001°31'2 3.9
2018-Jun-13 21:30N 51°27' E 001°32'2 3.6
2018-Jun-13 21:00N 51°29' E 001°34'2 3.9
2018-Jun-13 20:30N 51°29' E 001°37'2 5.0
2018-Jun-13 20:00N 51°28' E 001°41'3 6.3
2018-Jun-13 19:30N 51°26' E 001°44'3 6.4
2018-Jun-13 19:00N 51°23' E 001°43'3 6.6
2018-Jun-13 18:30N 51°19' E 001°42'3 6.9
2018-Jun-13 18:00N 51°16' E 001°40'4 7.3
2018-Jun-13 17:30N 51°13' E 001°38'4 7.3
2018-Jun-13 17:00N 51°09' E 001°38'4 8.1
2018-Jun-13 16:30N 51°05' E 001°39'510.9
2018-Jun-13 16:00N 51°01' E 001°34'612.3
2018-Jun-13 15:30N 50°55' E 001°29'612.6
2018-Jun-13 15:00N 50°49' E 001°25'612.9
2018-Jun-13 14:30N 50°44' E 001°21'612.6
2018-Jun-13 14:00N 50°39' E 001°14'611.6
2018-Jun-13 13:30N 50°36' E 001°07'610.8
2018-Jun-13 13:00N 50°32' E 000°60'610.6
2018-Jun-13 12:27N 50°30' E 000°51'1911.0
2018-Jun-13 10:43N 50°25' E 000°23'211.2
2018-Jun-13 10:30N 50°24' E 000°19'611.6
2018-Jun-13 10:00N 50°22' E 000°11'612.1
2018-Jun-13 09:30N 50°21' E 000°01'612.6
2018-Jun-13 09:00N 50°19' W 000°08'713.0
2018-Jun-13 08:30N 50°17' W 000°18'713.4
2018-Jun-13 08:00N 50°15' W 000°28'713.9
2018-Jun-13 07:30N 50°14' W 000°38'714.0
2018-Jun-13 07:00N 50°11' W 000°49'714.0
2018-Jun-13 06:30N 50°09' W 000°59'713.7
2018-Jun-13 06:00N 50°08' W 001°10'713.2
2018-Jun-13 05:30N 50°06' W 001°20'612.6
2018-Jun-13 05:01N 50°04' W 001°29'611.7
2018-Jun-13 04:30N 50°02' W 001°38'611.2
2018-Jun-13 04:00N 50°01' W 001°46'510.1
2018-Jun-13 03:30N 49°60' W 001°54'5 9.3
2018-Jun-13 03:00N 49°58' W 002°01'101 9.7
2018-Jun-12 16:33N 49°15' W 004°21'111.9
2018-Jun-12 16:29N 49°14' W 004°22'612.1
2018-Jun-12 15:58N 49°11' W 004°30'812.2
2018-Jun-12 15:17N 49°07' W 004°42'412.0
2018-Jun-12 14:55N 49°05' W 004°47'611.8
2018-Jun-12 14:26N 49°02' W 004°55'511.6
2018-Jun-12 14:00N 48°59' W 005°01'611.5
2018-Jun-12 13:30N 48°57' W 005°09'  
2018-Jun-10 00:04N 39°24' W 009°50'110.3
2018-Jun-10 00:00N 39°23' W 009°50'510.3
2018-Jun-09 23:29N 39°18' W 009°50'510.4
2018-Jun-09 23:00N 39°13' W 009°51'510.3
2018-Jun-09 22:30N 39°08' W 009°51'510.1
2018-Jun-09 22:00N 39°03' W 009°51'510.1
2018-Jun-09 21:30N 38°58' W 009°51'510.4
2018-Jun-09 21:00N 38°53' W 009°51'510.0
2018-Jun-09 20:30N 38°48' W 009°51'510.1
2018-Jun-09 20:00N 38°43' W 009°51'510.1
2018-Jun-09 19:30N 38°38' W 009°50'5 9.7
2018-Jun-09 19:00N 38°33' W 009°50'5 9.6
2018-Jun-09 18:30N 38°28' W 009°50'5 9.7
2018-Jun-09 18:00N 38°23' W 009°49'22 9.8
2018-Jun-09 15:44N 38°01' W 009°49'  

Dump ship's entire track history